Time;durP1;ratioP1;P1;durP2;ratioP2;P2;SDS_P1;SDS_P2;PMS_P1;PMS_P2;Temp;Humidity;BMP_temperature;BMP_pressure;BME280_temperature;BME280_humidity;BME280_pressure;Samples;Min_cycle;Max_cycle;Signal;HPM_P1;HPM_P2
2021/12/29 00:05:42;;;;;;;13.38;2.92;;;;;;;8.84;100.00;99209.94;20973980;28;20490;-84
2021/12/29 00:15:57;;;;;;;19.10;2.80;;;;;;;8.91;100.00;99224.53;20992257;28;20166;-84
2021/12/29 00:25:59;;;;;;;14.70;2.30;;;;;;;8.96;100.00;99243.56;20971581;28;20056;-84
2021/12/29 00:36:03;;;;;;;11.15;1.90;;;;;;;9.00;99.66;99239.94;20960693;28;20036;-84
2021/12/29 00:46:08;;;;;;;11.02;1.80;;;;;;;8.97;99.39;99268.75;20988408;28;20629;-84
2021/12/29 00:56:10;;;;;;;13.88;1.83;;;;;;;9.05;98.33;99291.16;20969361;28;20056;-83
2021/12/29 01:06:11;;;;;;;11.25;2.10;;;;;;;8.96;98.40;99300.13;20985694;28;20071;-85
2021/12/29 01:26:36;;;;;;;8.88;1.63;;;;;;;9.16;95.93;99346.59;20986193;28;20055;-84
2021/12/29 01:36:39;;;;;;;10.25;1.63;;;;;;;9.12;96.60;99378.91;20985189;28;20045;-84
2021/12/29 01:46:44;;;;;;;9.52;1.65;;;;;;;9.04;96.54;99401.72;20988890;28;20442;-84
2021/12/29 01:56:46;;;;;;;6.75;1.60;;;;;;;9.11;95.64;99419.81;20974788;28;20048;-84
2021/12/29 02:06:49;;;;;;;5.05;1.35;;;;;;;9.16;95.81;99422.31;20995144;28;20082;-84
2021/12/29 02:16:51;;;;;;;7.95;1.45;;;;;;;9.14;94.64;99450.22;20985994;28;20558;-84
2021/12/29 02:26:53;;;;;;;6.63;1.60;;;;;;;9.12;95.98;99463.31;20985387;28;20049;-84
2021/12/29 02:36:57;;;;;;;6.13;0.90;;;;;;;9.06;96.33;99483.50;21001189;28;20113;-84
2021/12/29 02:46:59;;;;;;;7.93;1.63;;;;;;;9.02;97.24;99507.97;21001810;28;20414;-84
2021/12/29 02:57:00;;;;;;;10.30;1.55;;;;;;;9.03;96.97;99514.91;20986331;28;20106;-84
2021/12/29 03:07:03;;;;;;;5.53;1.10;;;;;;;8.95;97.37;99517.69;20982766;28;20048;-84
2021/12/29 03:17:06;;;;;;;5.50;0.90;;;;;;;8.91;98.00;99537.81;20988147;28;20059;-85
2021/12/29 03:27:07;;;;;;;7.80;1.80;;;;;;;8.76;99.74;99521.63;20993658;28;20102;-84
2021/12/29 03:37:09;;;;;;;7.38;1.02;;;;;;;8.58;100.00;99541.16;20975121;28;20105;-84
2021/12/29 03:47:10;;;;;;;5.75;1.05;;;;;;;8.61;100.00;99543.69;20975223;28;20041;-83
2021/12/29 03:57:12;;;;;;;4.75;0.88;;;;;;;8.66;100.00;99567.94;20993035;28;20105;-84
2021/12/29 04:07:13;;;;;;;3.88;0.85;;;;;;;8.69;100.00;99591.38;20973347;28;20101;-83
2021/12/29 04:17:18;;;;;;;5.60;0.77;;;;;;;8.74;100.00;99586.91;20991279;28;20053;-84
2021/12/29 04:27:23;;;;;;;7.40;1.00;;;;;;;8.68;100.00;99592.25;20972294;28;20059;-84
2021/12/29 04:37:24;;;;;;;4.20;0.90;;;;;;;8.61;100.00;99604.56;20994725;28;20048;-82
2021/12/29 04:47:29;;;;;;;3.53;0.63;;;;;;;8.65;100.00;99621.88;20973611;28;20792;-84
2021/12/29 04:57:31;;;;;;;5.65;1.10;;;;;;;8.65;100.00;99650.59;20989590;28;20386;-84
2021/12/29 05:17:55;;;;;;;5.30;0.80;;;;;;;8.50;100.00;99645.66;20990916;28;20045;-84
2021/12/29 05:27:57;;;;;;;6.43;1.10;;;;;;;8.47;100.00;99656.16;20976425;28;20041;-83
2021/12/29 05:38:02;;;;;;;7.43;1.57;;;;;;;8.38;100.00;99666.75;21000799;28;20100;-84
2021/12/29 05:48:04;;;;;;;10.88;1.50;;;;;;;8.32;100.00;99672.91;20983120;28;20762;-84
2021/12/29 05:58:06;;;;;;;8.60;1.50;;;;;;;8.39;100.00;99673.72;20978164;28;20044;-83
2021/12/29 06:08:08;;;;;;;12.07;2.00;;;;;;;8.41;100.00;99683.22;21000504;28;20451;-84
2021/12/29 06:18:09;;;;;;;12.85;2.17;;;;;;;8.29;100.00;99703.41;20982848;28;20045;-84
2021/12/29 06:28:11;;;;;;;13.13;2.00;;;;;;;8.30;100.00;99705.16;21001296;28;20048;-83
2021/12/29 06:38:12;;;;;;;10.43;2.05;;;;;;;8.13;100.00;99728.88;20984296;28;20044;-84
2021/12/29 06:48:14;;;;;;;12.48;1.98;;;;;;;8.20;100.00;99746.16;20991390;28;20044;-85
2021/12/29 06:58:15;;;;;;;8.40;1.60;;;;;;;8.24;100.00;99753.06;20988834;28;20052;-85
2021/12/29 07:08:17;;;;;;;11.75;2.67;;;;;;;8.31;100.00;99744.22;20978754;28;20512;-84
2021/12/29 07:18:18;;;;;;;13.82;2.85;;;;;;;8.24;100.00;99768.72;20995100;28;20044;-84
2021/12/29 07:28:20;;;;;;;8.73;2.22;;;;;;;8.19;100.00;99792.25;20978083;28;20075;-84
2021/12/29 07:38:21;;;;;;;13.07;2.72;;;;;;;8.14;100.00;99816.66;20987538;28;20063;-84
2021/12/29 07:48:28;;;;;;;17.40;4.25;;;;;;;8.07;100.00;99825.47;20980474;28;20048;-85
2021/12/29 07:58:30;;;;;;;10.20;2.15;;;;;;;8.22;100.00;99833.06;20999402;28;20045;-85
2021/12/29 08:08:31;;;;;;;11.98;2.00;;;;;;;8.36;100.00;99840.66;20929544;28;20041;-84
2021/12/29 08:18:33;;;;;;;10.57;2.78;;;;;;;8.24;100.00;99846.94;20910156;28;20044;-84
2021/12/29 08:28:34;;;;;;;9.02;1.98;;;;;;;8.31;100.00;99859.00;20892744;28;20099;-84
2021/12/29 08:38:36;;;;;;;11.90;2.22;;;;;;;8.42;100.00;99835.38;20890731;28;20117;-85
2021/12/29 08:48:39;;;;;;;5.38;2.05;;;;;;;8.49;100.00;99826.59;20891059;28;20041;-83
2021/12/29 08:58:41;;;;;;;6.55;1.55;;;;;;;8.63;100.00;99842.88;20890838;28;20045;-84
2021/12/29 09:08:43;;;;;;;8.73;2.50;;;;;;;8.78;100.00;99817.41;20910646;28;20045;-85
2021/12/29 09:18:45;;;;;;;12.23;2.40;;;;;;;8.88;100.00;99840.69;20912854;28;20048;-84
2021/12/29 09:28:49;;;;;;;8.65;2.30;;;;;;;8.97;100.00;99863.16;20908413;28;20041;-84
2021/12/29 09:38:51;;;;;;;10.03;2.13;;;;;;;9.07;100.00;99884.75;20905448;28;20049;-85
2021/12/29 09:48:52;;;;;;;12.23;2.38;;;;;;;9.19;100.00;99894.97;20920352;28;20071;-84
2021/12/29 09:58:55;;;;;;;10.43;2.15;;;;;;;9.13;100.00;99869.81;20918147;28;20045;-85
2021/12/29 10:08:56;;;;;;;12.80;2.85;;;;;;;9.15;100.00;99869.78;20904994;28;20041;-84
2021/12/29 10:19:01;;;;;;;7.60;2.38;;;;;;;9.31;100.00;99863.41;20913169;28;20075;-85
2021/12/29 10:29:07;;;;;;;7.43;2.40;;;;;;;9.40;100.00;99855.41;20909497;28;20049;-85
2021/12/29 10:39:23;;;;;;;9.82;2.47;;;;;;;9.34;100.00;99860.75;20921483;28;20048;-84
2021/12/29 10:49:25;;;;;;;;;;;;;;;9.32;100.00;99866.88;20898597;28;20128;-84
2021/12/29 10:59:30;;;;;;;9.82;2.47;;;;;;;9.41;100.00;99862.34;20899108;28;19925;-84
2021/12/29 11:09:35;;;;;;;9.93;2.15;;;;;;;9.39;100.00;99848.44;20897650;28;20099;-84
2021/12/29 11:19:38;;;;;;;10.30;2.40;;;;;;;9.41;100.00;99849.28;21000742;28;20176;-84
2021/12/29 11:30:14;;;;;;;9.68;2.35;;;;;;;9.45;100.00;99832.66;20990492;28;20608;-83
2021/12/29 11:40:25;;;;;;;7.63;1.80;;;;;;;9.63;100.00;99830.53;20978516;28;20044;-84
2021/12/29 11:50:30;;;;;;;7.38;2.00;;;;;;;9.79;100.00;99823.25;20977833;28;20045;-84
2021/12/29 12:00:32;;;;;;;8.80;2.10;;;;;;;9.74;100.00;99813.75;20976502;28;20048;-85
2021/12/29 12:10:36;;;;;;;5.97;1.70;;;;;;;9.59;100.00;99819.28;20974579;28;20148;-84
2021/12/29 12:20:46;;;;;;;10.13;2.25;;;;;;;9.58;100.00;99821.91;20976695;28;20049;-84
2021/12/29 12:30:53;;;;;;;10.85;2.83;;;;;;;9.54;100.00;99823.75;20996425;28;20068;-84
2021/12/29 12:41:06;;;;;;;8.27;2.60;;;;;;;9.56;100.00;99821.09;21006734;28;20122;-84
2021/12/29 12:51:17;;;;;;;12.60;2.88;;;;;;;9.46;100.00;99828.28;20972514;28;20048;-84
2021/12/29 13:01:24;;;;;;;13.82;3.80;;;;;;;9.50;100.00;99841.25;20970343;28;20113;-84
2021/12/29 13:11:30;;;;;;;15.23;2.97;;;;;;;9.51;100.00;99827.28;20974619;28;20080;-84
2021/12/29 13:21:36;;;;;;;9.80;2.63;;;;;;;9.39;100.00;99817.09;20887740;28;20045;-84
2021/12/29 13:31:39;;;;;;;12.18;2.80;;;;;;;9.38;100.00;99822.34;20889265;28;20189;-85
2021/12/29 13:41:41;;;;;;;9.05;2.50;;;;;;;9.38;100.00;99817.97;20911295;28;20057;-84
2021/12/29 13:51:47;;;;;;;11.25;2.95;;;;;;;9.38;100.00;99820.56;20899627;28;20047;-84
2021/12/29 14:01:58;;;;;;;15.50;4.03;;;;;;;9.32;100.00;99841.63;20888079;28;20048;-84
2021/12/29 14:12:17;;;;;;;13.32;5.43;;;;;;;9.32;100.00;99844.22;20903842;28;20076;-84
2021/12/29 14:22:24;;;;;;;11.13;5.30;;;;;;;9.25;100.00;99853.09;20899073;28;20136;-83
2021/12/29 14:32:26;;;;;;;8.65;3.15;;;;;;;9.24;100.00;99841.75;20917569;28;20045;-84
2021/12/29 14:42:35;;;;;;;7.38;3.10;;;;;;;9.24;100.00;99853.94;20902591;28;20460;-85
2021/12/29 14:52:43;;;;;;;8.48;2.78;;;;;;;9.09;100.00;99859.47;20906811;28;20460;-84
2021/12/29 15:02:46;;;;;;;7.13;3.00;;;;;;;9.10;100.00;99872.53;20912431;28;20114;-84
2021/12/29 15:12:50;;;;;;;10.32;2.88;;;;;;;9.09;100.00;99849.88;20897301;28;20114;-84
2021/12/29 15:23:14;;;;;;;12.23;3.07;;;;;;;9.09;100.00;99838.56;20900086;28;20513;-84
2021/12/29 15:33:17;;;;;;;7.30;1.70;;;;;;;8.97;100.00;99850.97;20894716;28;20044;-83
2021/12/29 15:43:18;;;;;;;8.43;2.78;;;;;;;8.96;100.00;99833.59;20913770;28;20194;-84
2021/12/29 15:53:20;;;;;;;7.55;2.72;;;;;;;8.94;100.00;99813.59;20897737;28;20107;-84
2021/12/29 16:03:22;;;;;;;6.53;2.88;;;;;;;8.84;100.00;99827.72;20903341;28;20456;-84
2021/12/29 16:13:23;;;;;;;6.10;2.72;;;;;;;8.89;100.00;99777.16;20923956;28;20098;-84
2021/12/29 16:23:25;;;;;;;6.07;2.20;;;;;;;8.90;100.00;99784.06;20892350;28;20110;-85
2021/12/29 16:33:27;;;;;;;7.88;2.65;;;;;;;8.89;100.00;99795.41;20889390;28;20183;-83
2021/12/29 16:43:29;;;;;;;8.05;4.18;;;;;;;8.89;100.00;99821.53;20891610;28;20057;-84
2021/12/29 16:53:31;;;;;;;6.82;2.47;;;;;;;8.93;100.00;99828.41;20908778;28;20053;-84
2021/12/29 17:03:33;;;;;;;6.03;3.38;;;;;;;8.94;100.00;99845.78;20910567;28;20052;-85
2021/12/29 17:13:34;;;;;;;6.60;3.45;;;;;;;8.97;100.00;99777.00;20917741;28;20052;-85
2021/12/29 17:23:36;;;;;;;6.93;3.92;;;;;;;8.97;100.00;99814.41;20908192;28;20053;-85
2021/12/29 17:33:38;;;;;;;8.40;4.55;;;;;;;9.07;100.00;99828.16;20894545;28;20099;-84
2021/12/29 17:43:40;;;;;;;7.88;5.05;;;;;;;9.10;100.00;99832.44;20897935;28;20445;-85
2021/12/29 17:53:44;;;;;;;8.73;5.63;;;;;;;9.18;100.00;99827.94;20903766;28;20048;-83
2021/12/29 18:03:47;;;;;;;9.05;5.53;;;;;;;9.24;100.00;99836.53;20921588;28;20106;-84
2021/12/29 18:13:51;;;;;;;11.82;7.38;;;;;;;9.23;100.00;99826.97;20906195;28;20053;-84
2021/12/29 18:23:53;;;;;;;10.20;6.70;;;;;;;9.42;100.00;99839.69;20913387;28;20528;-85
2021/12/29 18:33:54;;;;;;;11.63;7.85;;;;;;;9.44;100.00;99844.00;20910938;28;20159;-84
2021/12/29 18:43:56;;;;;;;9.93;6.40;;;;;;;9.41;100.00;99851.88;20917632;28;20053;-84
2021/12/29 18:53:58;;;;;;;11.88;6.93;;;;;;;9.57;100.00;99864.63;20898307;28;20045;-84
2021/12/29 19:04:02;;;;;;;9.35;6.07;;;;;;;9.70;100.00;99866.13;20897797;28;20053;-84
2021/12/29 19:14:03;;;;;;;12.30;7.20;;;;;;;9.75;100.00;99862.50;20934888;28;20049;-84
2021/12/29 19:24:05;;;;;;;8.85;6.18;;;;;;;9.79;100.00;99862.44;20981402;28;20098;-84
2021/12/29 19:34:07;;;;;;;10.70;7.05;;;;;;;9.94;100.00;99865.59;21003669;28;20040;-85
2021/12/29 19:44:09;;;;;;;10.15;7.53;;;;;;;10.06;100.00;99902.81;20985981;28;20645;-84
2021/12/29 19:54:10;;;;;;;12.00;8.18;;;;;;;10.14;100.00;99919.22;20978005;28;20049;-84
2021/12/29 20:04:15;;;;;;;17.73;12.38;;;;;;;10.25;100.00;99899.84;20974832;28;20083;-84
2021/12/29 20:14:17;;;;;;;14.77;10.05;;;;;;;10.41;100.00;99913.41;20943886;28;20461;-84
2021/12/29 20:24:21;;;;;;;14.70;10.07;;;;;;;10.58;100.00;99917.41;20892826;28;20088;-84
2021/12/29 20:34:23;;;;;;;17.95;8.75;;;;;;;10.63;100.00;99916.38;20892540;28;20045;-84
2021/12/29 20:44:25;;;;;;;12.15;7.72;;;;;;;10.79;100.00;99948.31;20901264;28;20049;-84
2021/12/29 20:54:26;;;;;;;12.60;8.15;;;;;;;10.88;100.00;99979.53;20899831;28;20049;-84
2021/12/29 21:04:28;;;;;;;12.02;7.25;;;;;;;11.01;100.00;99996.66;20889500;28;20052;-84
2021/12/29 21:14:30;;;;;;;10.77;6.38;;;;;;;11.04;100.00;100020.16;20887143;28;20049;-84
2021/12/29 21:24:31;;;;;;;9.05;5.95;;;;;;;11.04;100.00;100028.03;20887234;28;20556;-84
2021/12/29 21:34:33;;;;;;;7.90;4.75;;;;;;;11.10;100.00;100047.13;20887048;28;20391;-84
2021/12/29 21:44:34;;;;;;;10.75;6.10;;;;;;;11.24;100.00;100055.53;20887664;28;20106;-85
2021/12/29 21:54:36;;;;;;;11.30;6.93;;;;;;;11.40;100.00;100050.75;20896105;28;20053;-84
2021/12/29 22:04:37;;;;;;;9.23;4.85;;;;;;;11.43;100.00;100050.69;20908236;28;20053;-85
2021/12/29 22:14:39;;;;;;;13.95;11.55;;;;;;;11.48;100.00;100080.28;20944892;28;20048;-84
2021/12/29 22:24:41;;;;;;;7.32;3.70;;;;;;;11.52;100.00;100082.78;20968257;28;20478;-84
2021/12/29 22:34:43;;;;;;;6.22;3.72;;;;;;;11.68;100.00;100098.13;20986011;28;20052;-84
2021/12/29 22:44:45;;;;;;;6.43;2.15;;;;;;;11.87;100.00;100119.53;20998606;28;20052;-84
2021/12/29 22:54:46;;;;;;;6.45;2.25;;;;;;;11.90;100.00;100112.47;20982224;28;20447;-84
2021/12/29 23:04:48;;;;;;;4.75;1.90;;;;;;;11.97;100.00;100132.38;20999303;28;20049;-83
2021/12/29 23:14:49;;;;;;;6.18;1.80;;;;;;;12.11;100.00;100160.03;20979461;28;20048;-84
2021/12/29 23:24:53;;;;;;;7.32;2.35;;;;;;;12.05;100.00;100176.81;20981139;28;20118;-84
2021/12/29 23:34:55;;;;;;;5.60;2.00;;;;;;;12.01;100.00;100199.63;20977056;28;20056;-84
2021/12/29 23:44:56;;;;;;;4.72;1.92;;;;;;;12.01;100.00;100227.63;20994257;28;20064;-84
2021/12/29 23:54:58;;;;;;;5.55;1.67;;;;;;;12.03;100.00;100245.09;20975883;28;20048;-84
